sensor_id;sensor_type;location;lat;lon;timestamp;temperature;humidity
16404;DHT22;8311;50.158;8.642;2023-05-15T00:02:40;21.30;49.00
16404;DHT22;8311;50.158;8.642;2023-05-15T00:05:35;21.30;49.00
16404;DHT22;8311;50.158;8.642;2023-05-15T00:08:28;21.30;49.60
16404;DHT22;8311;50.158;8.642;2023-05-15T00:11:21;21.30;48.90
16404;DHT22;8311;50.158;8.642;2023-05-15T00:14:15;21.30;48.90
16404;DHT22;8311;50.158;8.642;2023-05-15T00:17:10;21.30;48.90
16404;DHT22;8311;50.158;8.642;2023-05-15T00:20:05;21.30;48.90
16404;DHT22;8311;50.158;8.642;2023-05-15T00:23:00;21.30;48.90
16404;DHT22;8311;50.158;8.642;2023-05-15T00:25:53;21.30;48.90
16404;DHT22;8311;50.158;8.642;2023-05-15T00:28:47;21.30;48.90
16404;DHT22;8311;50.158;8.642;2023-05-15T00:31:41;21.30;48.90
16404;DHT22;8311;50.158;8.642;2023-05-15T00:34:35;21.30;48.90
16404;DHT22;8311;50.158;8.642;2023-05-15T00:37:29;21.30;48.90
16404;DHT22;8311;50.158;8.642;2023-05-15T00:40:24;21.30;48.90
16404;DHT22;8311;50.158;8.642;2023-05-15T00:43:19;21.30;48.90
16404;DHT22;8311;50.158;8.642;2023-05-15T00:46:13;21.30;48.90
16404;DHT22;8311;50.158;8.642;2023-05-15T00:49:09;21.30;48.90
16404;DHT22;8311;50.158;8.642;2023-05-15T00:52:04;21.30;48.90
16404;DHT22;8311;50.158;8.642;2023-05-15T00:54:59;21.30;48.90
16404;DHT22;8311;50.158;8.642;2023-05-15T00:57:52;21.30;48.90
16404;DHT22;8311;50.158;8.642;2023-05-15T01:00:47;21.30;48.90
16404;DHT22;8311;50.158;8.642;2023-05-15T01:03:41;21.30;48.80
16404;DHT22;8311;50.158;8.642;2023-05-15T01:06:36;21.30;48.90
16404;DHT22;8311;50.158;8.642;2023-05-15T01:09:30;21.30;48.80
16404;DHT22;8311;50.158;8.642;2023-05-15T01:12:24;21.30;48.80
16404;DHT22;8311;50.158;8.642;2023-05-15T01:15:19;21.30;48.80
16404;DHT22;8311;50.158;8.642;2023-05-15T01:18:12;21.30;48.80
16404;DHT22;8311;50.158;8.642;2023-05-15T01:21:33;21.30;48.80
16404;DHT22;8311;50.158;8.642;2023-05-15T01:24:48;21.30;48.80
16404;DHT22;8311;50.158;8.642;2023-05-15T01:27:49;21.30;48.80
16404;DHT22;8311;50.158;8.642;2023-05-15T01:30:44;21.30;48.80
16404;DHT22;8311;50.158;8.642;2023-05-15T01:33:45;21.30;48.80
16404;DHT22;8311;50.158;8.642;2023-05-15T01:36:43;21.30;48.80
16404;DHT22;8311;50.158;8.642;2023-05-15T01:39:39;21.30;48.90
16404;DHT22;8311;50.158;8.642;2023-05-15T01:42:34;21.30;48.80
16404;DHT22;8311;50.158;8.642;2023-05-15T01:45:31;21.30;48.80
16404;DHT22;8311;50.158;8.642;2023-05-15T01:48:26;21.30;48.80
16404;DHT22;8311;50.158;8.642;2023-05-15T01:51:21;21.30;48.80
16404;DHT22;8311;50.158;8.642;2023-05-15T01:54:16;21.30;48.80
16404;DHT22;8311;50.158;8.642;2023-05-15T01:57:11;21.30;48.80
16404;DHT22;8311;50.158;8.642;2023-05-15T02:00:06;21.30;48.80
16404;DHT22;8311;50.158;8.642;2023-05-15T02:03:02;21.30;48.80
16404;DHT22;8311;50.158;8.642;2023-05-15T02:05:56;21.30;48.80
16404;DHT22;8311;50.158;8.642;2023-05-15T02:08:52;21.30;48.80
16404;DHT22;8311;50.158;8.642;2023-05-15T02:11:46;21.30;48.80
16404;DHT22;8311;50.158;8.642;2023-05-15T02:14:40;21.30;48.80
16404;DHT22;8311;50.158;8.642;2023-05-15T02:17:34;21.30;48.80
16404;DHT22;8311;50.158;8.642;2023-05-15T02:20:29;21.30;48.80
16404;DHT22;8311;50.158;8.642;2023-05-15T02:23:22;21.30;48.80
16404;DHT22;8311;50.158;8.642;2023-05-15T02:26:29;21.30;48.70
16404;DHT22;8311;50.158;8.642;2023-05-15T02:29:30;21.30;48.70
16404;DHT22;8311;50.158;8.642;2023-05-15T02:32:30;21.30;48.80
16404;DHT22;8311;50.158;8.642;2023-05-15T02:35:34;21.30;48.70
16404;DHT22;8311;50.158;8.642;2023-05-15T02:38:33;21.30;48.70
16404;DHT22;8311;50.158;8.642;2023-05-15T02:41:30;21.30;48.70
16404;DHT22;8311;50.158;8.642;2023-05-15T02:44:25;21.30;48.70
16404;DHT22;8311;50.158;8.642;2023-05-15T02:47:19;21.30;48.70
16404;DHT22;8311;50.158;8.642;2023-05-15T02:50:13;21.30;48.70
16404;DHT22;8311;50.158;8.642;2023-05-15T02:53:07;21.30;48.70
16404;DHT22;8311;50.158;8.642;2023-05-15T02:56:01;21.30;48.70
16404;DHT22;8311;50.158;8.642;2023-05-15T02:58:54;21.30;48.70
16404;DHT22;8311;50.158;8.642;2023-05-15T03:01:47;21.30;48.70
16404;DHT22;8311;50.158;8.642;2023-05-15T03:04:40;21.30;48.70
16404;DHT22;8311;50.158;8.642;2023-05-15T03:07:33;21.30;48.70
16404;DHT22;8311;50.158;8.642;2023-05-15T03:10:28;21.30;48.70
16404;DHT22;8311;50.158;8.642;2023-05-15T03:13:22;21.30;48.70
16404;DHT22;8311;50.158;8.642;2023-05-15T03:16:15;21.30;48.70
16404;DHT22;8311;50.158;8.642;2023-05-15T03:19:09;21.30;48.60
16404;DHT22;8311;50.158;8.642;2023-05-15T03:22:03;21.30;48.60
16404;DHT22;8311;50.158;8.642;2023-05-15T03:24:57;21.30;48.60
16404;DHT22;8311;50.158;8.642;2023-05-15T03:27:53;21.30;48.60
16404;DHT22;8311;50.158;8.642;2023-05-15T03:30:47;21.30;48.60
16404;DHT22;8311;50.158;8.642;2023-05-15T03:33:40;21.30;48.60
16404;DHT22;8311;50.158;8.642;2023-05-15T03:36:34;21.30;48.60
16404;DHT22;8311;50.158;8.642;2023-05-15T03:39:27;21.30;48.50
16404;DHT22;8311;50.158;8.642;2023-05-15T03:42:20;21.30;48.60
16404;DHT22;8311;50.158;8.642;2023-05-15T03:45:17;21.30;48.50
16404;DHT22;8311;50.158;8.642;2023-05-15T03:48:10;21.30;48.50
16404;DHT22;8311;50.158;8.642;2023-05-15T03:51:03;21.30;48.50
16404;DHT22;8311;50.158;8.642;2023-05-15T03:53:56;21.30;48.50
16404;DHT22;8311;50.158;8.642;2023-05-15T03:56:49;21.30;48.50
16404;DHT22;8311;50.158;8.642;2023-05-15T03:59:42;21.30;48.40
16404;DHT22;8311;50.158;8.642;2023-05-15T04:02:38;21.30;48.40
16404;DHT22;8311;50.158;8.642;2023-05-15T04:05:32;21.20;48.40
16404;DHT22;8311;50.158;8.642;2023-05-15T04:08:25;21.30;48.40
16404;DHT22;8311;50.158;8.642;2023-05-15T04:11:18;21.30;48.40
16404;DHT22;8311;50.158;8.642;2023-05-15T04:14:12;21.30;48.50
16404;DHT22;8311;50.158;8.642;2023-05-15T04:17:05;21.30;48.40
16404;DHT22;8311;50.158;8.642;2023-05-15T04:19:59;21.30;48.40
16404;DHT22;8311;50.158;8.642;2023-05-15T04:22:53;21.30;48.40
16404;DHT22;8311;50.158;8.642;2023-05-15T04:25:46;21.30;48.50
16404;DHT22;8311;50.158;8.642;2023-05-15T04:28:39;21.30;48.40
16404;DHT22;8311;50.158;8.642;2023-05-15T04:31:47;21.30;48.40
16404;DHT22;8311;50.158;8.642;2023-05-15T04:34:40;21.30;48.40
16404;DHT22;8311;50.158;8.642;2023-05-15T04:37:35;21.30;48.40
16404;DHT22;8311;50.158;8.642;2023-05-15T04:40:28;21.30;48.40
16404;DHT22;8311;50.158;8.642;2023-05-15T04:43:21;21.30;48.40
16404;DHT22;8311;50.158;8.642;2023-05-15T04:46:15;21.30;48.40
16404;DHT22;8311;50.158;8.642;2023-05-15T04:49:08;21.30;48.40
16404;DHT22;8311;50.158;8.642;2023-05-15T04:52:01;21.30;48.40
16404;DHT22;8311;50.158;8.642;2023-05-15T04:54:57;21.30;48.40
16404;DHT22;8311;50.158;8.642;2023-05-15T04:57:50;21.30;48.40
16404;DHT22;8311;50.158;8.642;2023-05-15T05:00:43;21.30;48.40
16404;DHT22;8311;50.158;8.642;2023-05-15T05:03:36;21.30;48.40
16404;DHT22;8311;50.158;8.642;2023-05-15T05:06:29;21.30;48.40
16404;DHT22;8311;50.158;8.642;2023-05-15T05:09:22;21.30;48.40
16404;DHT22;8311;50.158;8.642;2023-05-15T05:12:17;21.30;48.40
16404;DHT22;8311;50.158;8.642;2023-05-15T05:15:10;21.30;48.40
16404;DHT22;8311;50.158;8.642;2023-05-15T05:18:05;21.30;48.40
16404;DHT22;8311;50.158;8.642;2023-05-15T05:20:58;21.30;48.50
16404;DHT22;8311;50.158;8.642;2023-05-15T05:23:52;21.20;48.40
16404;DHT22;8311;50.158;8.642;2023-05-15T05:26:47;21.30;48.50
16404;DHT22;8311;50.158;8.642;2023-05-15T05:29:41;21.30;48.50
16404;DHT22;8311;50.158;8.642;2023-05-15T05:32:35;21.30;48.50
16404;DHT22;8311;50.158;8.642;2023-05-15T05:35:28;21.30;48.50
16404;DHT22;8311;50.158;8.642;2023-05-15T05:38:21;21.30;48.50
16404;DHT22;8311;50.158;8.642;2023-05-15T05:41:14;21.30;48.50
16404;DHT22;8311;50.158;8.642;2023-05-15T05:44:08;21.30;48.50
16404;DHT22;8311;50.158;8.642;2023-05-15T05:47:04;21.30;48.60
16404;DHT22;8311;50.158;8.642;2023-05-15T05:49:57;21.30;48.60
16404;DHT22;8311;50.158;8.642;2023-05-15T05:52:50;21.30;48.60
16404;DHT22;8311;50.158;8.642;2023-05-15T05:55:43;21.30;48.60
16404;DHT22;8311;50.158;8.642;2023-05-15T05:58:36;21.30;48.60
16404;DHT22;8311;50.158;8.642;2023-05-15T06:01:29;21.30;48.60
16404;DHT22;8311;50.158;8.642;2023-05-15T06:04:23;21.30;48.60
16404;DHT22;8311;50.158;8.642;2023-05-15T06:07:17;21.30;48.60
16404;DHT22;8311;50.158;8.642;2023-05-15T06:10:10;21.30;48.60
16404;DHT22;8311;50.158;8.642;2023-05-15T06:13:04;21.30;48.70
16404;DHT22;8311;50.158;8.642;2023-05-15T06:15:57;21.30;48.70
16404;DHT22;8311;50.158;8.642;2023-05-15T06:18:50;21.30;48.70
16404;DHT22;8311;50.158;8.642;2023-05-15T06:21:45;21.30;48.70
16404;DHT22;8311;50.158;8.642;2023-05-15T06:24:38;21.30;48.70
16404;DHT22;8311;50.158;8.642;2023-05-15T06:27:31;21.30;48.70
16404;DHT22;8311;50.158;8.642;2023-05-15T06:30:24;21.30;48.70
16404;DHT22;8311;50.158;8.642;2023-05-15T06:33:18;21.30;48.70
16404;DHT22;8311;50.158;8.642;2023-05-15T06:36:12;21.30;48.70
16404;DHT22;8311;50.158;8.642;2023-05-15T06:39:06;21.30;48.70
16404;DHT22;8311;50.158;8.642;2023-05-15T06:42:02;21.30;48.70
16404;DHT22;8311;50.158;8.642;2023-05-15T06:44:55;21.30;48.70
16404;DHT22;8311;50.158;8.642;2023-05-15T06:47:48;21.30;48.70
16404;DHT22;8311;50.158;8.642;2023-05-15T06:50:41;21.30;48.70
16404;DHT22;8311;50.158;8.642;2023-05-15T06:53:34;21.30;48.70
16404;DHT22;8311;50.158;8.642;2023-05-15T06:56:28;21.30;49.60
16404;DHT22;8311;50.158;8.642;2023-05-15T06:59:21;21.30;48.70
16404;DHT22;8311;50.158;8.642;2023-05-15T07:02:14;21.30;48.70
16404;DHT22;8311;50.158;8.642;2023-05-15T07:05:08;21.30;48.60
16404;DHT22;8311;50.158;8.642;2023-05-15T07:08:02;21.30;48.70
16404;DHT22;8311;50.158;8.642;2023-05-15T07:10:55;21.30;48.60
16404;DHT22;8311;50.158;8.642;2023-05-15T07:13:51;21.30;48.70
16404;DHT22;8311;50.158;8.642;2023-05-15T07:16:44;21.30;48.50
16404;DHT22;8311;50.158;8.642;2023-05-15T07:19:38;21.30;48.40
16404;DHT22;8311;50.158;8.642;2023-05-15T07:22:31;21.30;48.60
16404;DHT22;8311;50.158;8.642;2023-05-15T07:25:35;21.30;48.50
16404;DHT22;8311;50.158;8.642;2023-05-15T07:28:29;21.30;48.50
16404;DHT22;8311;50.158;8.642;2023-05-15T07:31:24;21.30;48.70
16404;DHT22;8311;50.158;8.642;2023-05-15T07:34:17;21.30;48.70
16404;DHT22;8311;50.158;8.642;2023-05-15T07:37:11;21.30;48.90
16404;DHT22;8311;50.158;8.642;2023-05-15T07:40:07;21.30;48.80
16404;DHT22;8311;50.158;8.642;2023-05-15T07:43:00;21.30;48.70
16404;DHT22;8311;50.158;8.642;2023-05-15T07:45:53;21.30;48.70
16404;DHT22;8311;50.158;8.642;2023-05-15T07:48:48;21.30;48.70
16404;DHT22;8311;50.158;8.642;2023-05-15T07:51:41;21.40;48.80
16404;DHT22;8311;50.158;8.642;2023-05-15T07:54:35;21.30;48.60
16404;DHT22;8311;50.158;8.642;2023-05-15T07:57:27;21.30;48.70
16404;DHT22;8311;50.158;8.642;2023-05-15T08:00:20;21.40;48.90
16404;DHT22;8311;50.158;8.642;2023-05-15T08:03:14;21.40;49.00
16404;DHT22;8311;50.158;8.642;2023-05-15T08:06:09;21.40;48.90
16404;DHT22;8311;50.158;8.642;2023-05-15T08:09:02;21.40;48.90
16404;DHT22;8311;50.158;8.642;2023-05-15T08:11:56;21.40;48.60
16404;DHT22;8311;50.158;8.642;2023-05-15T08:15:08;21.40;48.40
16404;DHT22;8311;50.158;8.642;2023-05-15T08:18:07;21.40;47.70
16404;DHT22;8311;50.158;8.642;2023-05-15T08:21:00;21.40;47.80
16404;DHT22;8311;50.158;8.642;2023-05-15T08:23:57;21.40;47.40
16404;DHT22;8311;50.158;8.642;2023-05-15T08:26:50;21.40;47.10
16404;DHT22;8311;50.158;8.642;2023-05-15T08:29:44;21.40;47.30
16404;DHT22;8311;50.158;8.642;2023-05-15T08:32:37;21.40;46.70
16404;DHT22;8311;50.158;8.642;2023-05-15T08:35:31;21.40;47.10
16404;DHT22;8311;50.158;8.642;2023-05-15T08:38:24;21.40;47.20
16404;DHT22;8311;50.158;8.642;2023-05-15T08:41:27;21.50;47.30
16404;DHT22;8311;50.158;8.642;2023-05-15T08:44:32;21.50;47.60
16404;DHT22;8311;50.158;8.642;2023-05-15T08:47:27;21.50;47.10
16404;DHT22;8311;50.158;8.642;2023-05-15T08:50:22;21.50;47.50
16404;DHT22;8311;50.158;8.642;2023-05-15T08:53:16;21.50;47.20
16404;DHT22;8311;50.158;8.642;2023-05-15T08:56:09;21.50;46.70
16404;DHT22;8311;50.158;8.642;2023-05-15T08:59:04;21.50;47.00
16404;DHT22;8311;50.158;8.642;2023-05-15T09:01:57;21.50;46.60
16404;DHT22;8311;50.158;8.642;2023-05-15T09:04:51;21.50;46.40
16404;DHT22;8311;50.158;8.642;2023-05-15T09:07:45;21.60;46.30
16404;DHT22;8311;50.158;8.642;2023-05-15T09:10:39;21.60;46.20
16404;DHT22;8311;50.158;8.642;2023-05-15T09:13:32;21.70;46.20
16404;DHT22;8311;50.158;8.642;2023-05-15T09:16:27;21.60;46.10
16404;DHT22;8311;50.158;8.642;2023-05-15T09:19:21;21.70;46.20
16404;DHT22;8311;50.158;8.642;2023-05-15T09:22:16;21.70;46.20
16404;DHT22;8311;50.158;8.642;2023-05-15T09:25:31;21.80;46.20
16404;DHT22;8311;50.158;8.642;2023-05-15T09:28:27;21.70;46.20
16404;DHT22;8311;50.158;8.642;2023-05-15T09:31:20;21.80;46.40
16404;DHT22;8311;50.158;8.642;2023-05-15T09:34:15;21.80;46.40
16404;DHT22;8311;50.158;8.642;2023-05-15T09:37:11;21.80;46.30
16404;DHT22;8311;50.158;8.642;2023-05-15T09:40:09;21.80;46.30
16404;DHT22;8311;50.158;8.642;2023-05-15T09:43:02;21.80;46.40
16404;DHT22;8311;50.158;8.642;2023-05-15T09:45:56;21.80;45.90
16404;DHT22;8311;50.158;8.642;2023-05-15T09:48:52;21.80;46.40
16404;DHT22;8311;50.158;8.642;2023-05-15T09:51:48;21.80;46.40
16404;DHT22;8311;50.158;8.642;2023-05-15T09:54:43;21.90;46.50
16404;DHT22;8311;50.158;8.642;2023-05-15T09:57:40;21.90;46.50
16404;DHT22;8311;50.158;8.642;2023-05-15T10:00:34;21.90;46.30
16404;DHT22;8311;50.158;8.642;2023-05-15T10:03:39;22.00;46.50
16404;DHT22;8311;50.158;8.642;2023-05-15T10:06:35;21.90;46.50
16404;DHT22;8311;50.158;8.642;2023-05-15T10:09:30;21.90;46.50
16404;DHT22;8311;50.158;8.642;2023-05-15T10:12:25;22.00;46.60
16404;DHT22;8311;50.158;8.642;2023-05-15T10:15:19;22.00;46.50
16404;DHT22;8311;50.158;8.642;2023-05-15T10:18:13;22.00;46.30
16404;DHT22;8311;50.158;8.642;2023-05-15T10:21:07;22.00;46.30
16404;DHT22;8311;50.158;8.642;2023-05-15T10:24:01;22.00;46.20
16404;DHT22;8311;50.158;8.642;2023-05-15T10:26:57;22.00;46.90
16404;DHT22;8311;50.158;8.642;2023-05-15T10:29:51;22.00;46.20
16404;DHT22;8311;50.158;8.642;2023-05-15T10:32:45;22.00;46.20
16404;DHT22;8311;50.158;8.642;2023-05-15T10:35:39;22.00;46.20
16404;DHT22;8311;50.158;8.642;2023-05-15T10:38:33;22.00;46.20
16404;DHT22;8311;50.158;8.642;2023-05-15T10:41:28;22.00;46.20
16404;DHT22;8311;50.158;8.642;2023-05-15T10:44:24;22.00;46.30
16404;DHT22;8311;50.158;8.642;2023-05-15T10:47:18;22.00;46.20
16404;DHT22;8311;50.158;8.642;2023-05-15T10:50:12;22.00;46.20
16404;DHT22;8311;50.158;8.642;2023-05-15T10:53:07;22.00;46.00
16404;DHT22;8311;50.158;8.642;2023-05-15T10:56:01;22.00;46.00
16404;DHT22;8311;50.158;8.642;2023-05-15T10:58:55;22.00;46.00
16404;DHT22;8311;50.158;8.642;2023-05-15T11:01:50;22.00;46.10
16404;DHT22;8311;50.158;8.642;2023-05-15T11:04:43;22.00;46.10
16404;DHT22;8311;50.158;8.642;2023-05-15T11:07:36;22.10;46.20
16404;DHT22;8311;50.158;8.642;2023-05-15T11:10:36;22.00;46.10
16404;DHT22;8311;50.158;8.642;2023-05-15T11:16:59;22.10;46.20
16404;DHT22;8311;50.158;8.642;2023-05-15T11:19:55;22.10;46.30
16404;DHT22;8311;50.158;8.642;2023-05-15T11:22:57;22.10;46.30
16404;DHT22;8311;50.158;8.642;2023-05-15T11:25:52;22.10;46.40
16404;DHT22;8311;50.158;8.642;2023-05-15T11:28:45;22.10;46.40
16404;DHT22;8311;50.158;8.642;2023-05-15T11:31:39;22.10;46.50
16404;DHT22;8311;50.158;8.642;2023-05-15T11:34:34;22.10;47.00
16404;DHT22;8311;50.158;8.642;2023-05-15T11:37:36;22.10;46.60
16404;DHT22;8311;50.158;8.642;2023-05-15T11:40:35;22.10;46.50
16404;DHT22;8311;50.158;8.642;2023-05-15T11:43:35;22.10;46.50
16404;DHT22;8311;50.158;8.642;2023-05-15T11:46:28;22.20;46.60
16404;DHT22;8311;50.158;8.642;2023-05-15T11:49:23;22.10;46.40
16404;DHT22;8311;50.158;8.642;2023-05-15T11:52:17;22.10;46.50
16404;DHT22;8311;50.158;8.642;2023-05-15T11:55:10;22.20;46.60
16404;DHT22;8311;50.158;8.642;2023-05-15T11:58:04;22.20;46.50
16404;DHT22;8311;50.158;8.642;2023-05-15T12:00:59;22.20;46.60
16404;DHT22;8311;50.158;8.642;2023-05-15T12:03:52;22.20;46.70
16404;DHT22;8311;50.158;8.642;2023-05-15T12:06:47;22.10;46.60
16404;DHT22;8311;50.158;8.642;2023-05-15T12:09:43;22.20;46.60
16404;DHT22;8311;50.158;8.642;2023-05-15T12:12:39;22.20;46.70
16404;DHT22;8311;50.158;8.642;2023-05-15T12:15:36;22.20;46.60
16404;DHT22;8311;50.158;8.642;2023-05-15T12:18:30;22.20;46.40
16404;DHT22;8311;50.158;8.642;2023-05-15T12:21:25;22.20;46.40
16404;DHT22;8311;50.158;8.642;2023-05-15T12:24:19;22.10;46.50
16404;DHT22;8311;50.158;8.642;2023-05-15T12:27:14;22.10;46.60
16404;DHT22;8311;50.158;8.642;2023-05-15T12:30:09;22.10;46.80
16404;DHT22;8311;50.158;8.642;2023-05-15T12:33:04;22.10;46.80
16404;DHT22;8311;50.158;8.642;2023-05-15T12:35:58;22.00;46.70
16404;DHT22;8311;50.158;8.642;2023-05-15T12:38:52;22.00;46.80
16404;DHT22;8311;50.158;8.642;2023-05-15T12:41:46;22.00;46.90
16404;DHT22;8311;50.158;8.642;2023-05-15T12:44:43;22.00;46.90
16404;DHT22;8311;50.158;8.642;2023-05-15T12:47:36;22.00;46.90
16404;DHT22;8311;50.158;8.642;2023-05-15T12:50:31;21.90;46.80
16404;DHT22;8311;50.158;8.642;2023-05-15T12:53:24;22.00;46.80
16404;DHT22;8311;50.158;8.642;2023-05-15T12:56:17;21.90;46.70
16404;DHT22;8311;50.158;8.642;2023-05-15T12:59:12;22.00;46.60
16404;DHT22;8311;50.158;8.642;2023-05-15T13:02:09;22.00;46.30
16404;DHT22;8311;50.158;8.642;2023-05-15T13:05:03;21.90;46.20
16404;DHT22;8311;50.158;8.642;2023-05-15T13:07:57;21.90;45.70
16404;DHT22;8311;50.158;8.642;2023-05-15T13:10:56;21.90;45.70
16404;DHT22;8311;50.158;8.642;2023-05-15T13:13:52;21.90;46.10
16404;DHT22;8311;50.158;8.642;2023-05-15T13:16:46;21.90;45.90
16404;DHT22;8311;50.158;8.642;2023-05-15T13:19:41;21.90;46.50
16404;DHT22;8311;50.158;8.642;2023-05-15T13:22:35;21.90;46.60
16404;DHT22;8311;50.158;8.642;2023-05-15T13:25:28;21.90;46.50
16404;DHT22;8311;50.158;8.642;2023-05-15T13:28:23;21.90;46.60
16404;DHT22;8311;50.158;8.642;2023-05-15T13:31:16;21.90;46.70
16404;DHT22;8311;50.158;8.642;2023-05-15T13:34:08;21.90;46.70
16404;DHT22;8311;50.158;8.642;2023-05-15T13:37:03;21.90;46.70
16404;DHT22;8311;50.158;8.642;2023-05-15T13:39:57;21.80;46.40
16404;DHT22;8311;50.158;8.642;2023-05-15T13:42:50;21.80;46.40
16404;DHT22;8311;50.158;8.642;2023-05-15T13:45:43;21.80;46.50
16404;DHT22;8311;50.158;8.642;2023-05-15T13:48:36;21.80;46.60
16404;DHT22;8311;50.158;8.642;2023-05-15T13:51:30;21.80;46.70
16404;DHT22;8311;50.158;8.642;2023-05-15T13:54:24;21.80;46.70
16404;DHT22;8311;50.158;8.642;2023-05-15T13:57:17;21.80;46.90
16404;DHT22;8311;50.158;8.642;2023-05-15T14:00:12;21.80;47.00
16404;DHT22;8311;50.158;8.642;2023-05-15T14:03:05;21.80;47.10
16404;DHT22;8311;50.158;8.642;2023-05-15T14:05:58;21.80;47.20
16404;DHT22;8311;50.158;8.642;2023-05-15T14:08:52;21.80;47.30
16404;DHT22;8311;50.158;8.642;2023-05-15T14:11:46;21.80;47.40
16404;DHT22;8311;50.158;8.642;2023-05-15T14:14:39;21.80;47.50
16404;DHT22;8311;50.158;8.642;2023-05-15T14:17:35;21.80;47.50
16404;DHT22;8311;50.158;8.642;2023-05-15T14:20:28;21.80;48.30
16404;DHT22;8311;50.158;8.642;2023-05-15T14:23:21;21.80;47.70
16404;DHT22;8311;50.158;8.642;2023-05-15T14:26:14;21.80;47.70
16404;DHT22;8311;50.158;8.642;2023-05-15T14:29:09;21.80;47.90
16404;DHT22;8311;50.158;8.642;2023-05-15T14:32:03;21.80;47.90
16404;DHT22;8311;50.158;8.642;2023-05-15T14:34:57;21.70;47.90
16404;DHT22;8311;50.158;8.642;2023-05-15T14:37:50;21.80;48.00
16404;DHT22;8311;50.158;8.642;2023-05-15T14:40:43;21.80;48.10
16404;DHT22;8311;50.158;8.642;2023-05-15T14:43:37;21.80;48.10
16404;DHT22;8311;50.158;8.642;2023-05-15T14:46:31;21.80;48.10
16404;DHT22;8311;50.158;8.642;2023-05-15T14:49:25;21.80;48.10
16404;DHT22;8311;50.158;8.642;2023-05-15T14:52:18;21.70;48.10
16404;DHT22;8311;50.158;8.642;2023-05-15T14:55:11;21.70;48.20
16404;DHT22;8311;50.158;8.642;2023-05-15T14:58:05;21.70;48.20
16404;DHT22;8311;50.158;8.642;2023-05-15T15:00:58;21.70;48.20
16404;DHT22;8311;50.158;8.642;2023-05-15T15:03:52;21.70;48.20
16404;DHT22;8311;50.158;8.642;2023-05-15T15:06:46;21.70;48.20
16404;DHT22;8311;50.158;8.642;2023-05-15T15:09:39;21.70;48.90
16404;DHT22;8311;50.158;8.642;2023-05-15T15:12:32;21.70;48.30
16404;DHT22;8311;50.158;8.642;2023-05-15T15:15:26;21.70;48.30
16404;DHT22;8311;50.158;8.642;2023-05-15T15:18:20;21.70;48.30
16404;DHT22;8311;50.158;8.642;2023-05-15T15:21:14;21.70;48.30
16404;DHT22;8311;50.158;8.642;2023-05-15T15:24:08;21.70;48.40
16404;DHT22;8311;50.158;8.642;2023-05-15T15:27:01;21.70;48.40
16404;DHT22;8311;50.158;8.642;2023-05-15T15:29:53;21.70;48.50
16404;DHT22;8311;50.158;8.642;2023-05-15T15:32:47;21.70;48.60
16404;DHT22;8311;50.158;8.642;2023-05-15T15:35:39;21.70;48.60
16404;DHT22;8311;50.158;8.642;2023-05-15T15:38:34;21.70;48.60
16404;DHT22;8311;50.158;8.642;2023-05-15T15:41:29;21.70;48.60
16404;DHT22;8311;50.158;8.642;2023-05-15T15:44:22;21.70;48.70
16404;DHT22;8311;50.158;8.642;2023-05-15T15:47:16;21.70;48.80
16404;DHT22;8311;50.158;8.642;2023-05-15T15:50:10;21.70;48.80
16404;DHT22;8311;50.158;8.642;2023-05-15T15:53:03;21.70;48.80
16404;DHT22;8311;50.158;8.642;2023-05-15T15:55:58;21.70;48.90
16404;DHT22;8311;50.158;8.642;2023-05-15T15:58:51;21.70;48.90
16404;DHT22;8311;50.158;8.642;2023-05-15T16:01:45;21.70;49.00
16404;DHT22;8311;50.158;8.642;2023-05-15T16:04:39;21.70;49.00
16404;DHT22;8311;50.158;8.642;2023-05-15T16:07:33;21.70;49.10
16404;DHT22;8311;50.158;8.642;2023-05-15T16:10:26;21.70;49.10
16404;DHT22;8311;50.158;8.642;2023-05-15T16:13:21;21.70;49.20
16404;DHT22;8311;50.158;8.642;2023-05-15T16:16:15;21.70;49.20
16404;DHT22;8311;50.158;8.642;2023-05-15T16:19:08;21.70;49.30
16404;DHT22;8311;50.158;8.642;2023-05-15T16:22:01;21.70;49.40
16404;DHT22;8311;50.158;8.642;2023-05-15T16:24:55;21.70;50.00
16404;DHT22;8311;50.158;8.642;2023-05-15T16:27:48;21.70;49.50
16404;DHT22;8311;50.158;8.642;2023-05-15T16:30:42;21.70;49.50
16404;DHT22;8311;50.158;8.642;2023-05-15T16:33:41;21.70;49.60
16404;DHT22;8311;50.158;8.642;2023-05-15T16:36:35;21.70;49.50
16404;DHT22;8311;50.158;8.642;2023-05-15T16:39:27;21.70;49.60
16404;DHT22;8311;50.158;8.642;2023-05-15T16:42:23;21.70;49.60
16404;DHT22;8311;50.158;8.642;2023-05-15T16:45:16;21.70;49.60
16404;DHT22;8311;50.158;8.642;2023-05-15T16:48:10;21.70;49.70
16404;DHT22;8311;50.158;8.642;2023-05-15T16:51:04;21.70;49.70
16404;DHT22;8311;50.158;8.642;2023-05-15T16:53:57;21.70;49.80
16404;DHT22;8311;50.158;8.642;2023-05-15T16:56:51;21.70;49.70
16404;DHT22;8311;50.158;8.642;2023-05-15T16:59:44;21.70;49.80
16404;DHT22;8311;50.158;8.642;2023-05-15T17:02:37;21.70;49.80
16404;DHT22;8311;50.158;8.642;2023-05-15T17:05:32;21.70;49.90
16404;DHT22;8311;50.158;8.642;2023-05-15T17:08:25;21.70;49.80
16404;DHT22;8311;50.158;8.642;2023-05-15T17:11:19;21.70;49.90
16404;DHT22;8311;50.158;8.642;2023-05-15T17:14:13;21.70;49.80
16404;DHT22;8311;50.158;8.642;2023-05-15T17:17:06;21.70;49.80
16404;DHT22;8311;50.158;8.642;2023-05-15T17:19:59;21.70;49.90
16404;DHT22;8311;50.158;8.642;2023-05-15T17:22:55;21.70;49.80
16404;DHT22;8311;50.158;8.642;2023-05-15T17:25:49;21.70;49.90
16404;DHT22;8311;50.158;8.642;2023-05-15T17:28:42;21.70;49.90
16404;DHT22;8311;50.158;8.642;2023-05-15T17:31:35;21.70;49.90
16404;DHT22;8311;50.158;8.642;2023-05-15T17:34:28;21.70;49.90
16404;DHT22;8311;50.158;8.642;2023-05-15T17:37:21;21.70;49.90
16404;DHT22;8311;50.158;8.642;2023-05-15T17:40:15;21.70;49.90
16404;DHT22;8311;50.158;8.642;2023-05-15T17:43:09;21.70;49.70
16404;DHT22;8311;50.158;8.642;2023-05-15T17:46:02;21.70;49.80
16404;DHT22;8311;50.158;8.642;2023-05-15T17:48:56;21.60;49.70
16404;DHT22;8311;50.158;8.642;2023-05-15T17:51:49;21.70;49.70
16404;DHT22;8311;50.158;8.642;2023-05-15T17:54:43;21.70;49.70
16404;DHT22;8311;50.158;8.642;2023-05-15T17:57:37;21.70;49.70
16404;DHT22;8311;50.158;8.642;2023-05-15T18:00:30;21.70;49.70
16404;DHT22;8311;50.158;8.642;2023-05-15T18:03:23;21.70;49.80
16404;DHT22;8311;50.158;8.642;2023-05-15T18:06:16;21.70;49.80
16404;DHT22;8311;50.158;8.642;2023-05-15T18:09:10;21.70;49.80
16404;DHT22;8311;50.158;8.642;2023-05-15T18:12:03;21.70;49.80
16404;DHT22;8311;50.158;8.642;2023-05-15T18:14:58;21.70;49.70
16404;DHT22;8311;50.158;8.642;2023-05-15T18:17:52;21.70;49.70
16404;DHT22;8311;50.158;8.642;2023-05-15T18:20:45;21.70;49.70
16404;DHT22;8311;50.158;8.642;2023-05-15T18:23:39;21.60;50.30
16404;DHT22;8311;50.158;8.642;2023-05-15T18:26:33;21.70;49.70
16404;DHT22;8311;50.158;8.642;2023-05-15T18:29:26;21.60;49.70
16404;DHT22;8311;50.158;8.642;2023-05-15T18:32:25;21.70;49.70
16404;DHT22;8311;50.158;8.642;2023-05-15T18:35:19;21.70;49.70
16404;DHT22;8311;50.158;8.642;2023-05-15T18:38:12;21.60;49.70
16404;DHT22;8311;50.158;8.642;2023-05-15T18:41:05;21.60;49.70
16404;DHT22;8311;50.158;8.642;2023-05-15T18:43:59;21.60;49.70